Time;durP1;ratioP1;P1;durP2;ratioP2;P2;SDS_P1;SDS_P2;PMS_P1;PMS_P2;Temp;Humidity;BMP_temperature;BMP_pressure;BME280_temperature;BME280_humidity;BME280_pressure;Samples;Min_cycle;Max_cycle;Signal;HPM_P1;HPM_P2
2021/04/21 00:00:56;;;;;;;6.90;5.32;;;;;;;22.40;46.96;94851.13;4975625;28;20034;-75
2021/04/21 00:03:22;;;;;;;8.40;5.70;;;;;;;22.40;46.80;94851.13;4992420;28;20107;-75
2021/04/21 00:05:47;;;;;;;6.97;5.18;;;;;;;22.40;46.92;94845.69;4989223;28;20018;-75
2021/04/21 00:08:13;;;;;;;7.00;5.47;;;;;;;22.36;46.90;94841.75;4990110;28;20099;-75
2021/04/21 00:10:38;;;;;;;7.28;5.32;;;;;;;22.38;47.04;94842.72;4972850;28;20037;-75
2021/04/21 00:13:06;;;;;;;9.60;6.75;;;;;;;22.32;46.85;94844.75;4957145;28;20030;-75
2021/04/21 00:15:32;;;;;;;6.82;5.40;;;;;;;22.35;46.92;94849.19;4989183;28;20480;-75
2021/04/21 00:17:58;;;;;;;8.63;5.43;;;;;;;22.35;46.91;94849.19;4972683;28;20037;-75
2021/04/21 00:20:24;;;;;;;6.40;5.20;;;;;;;22.35;46.87;94846.47;4973147;28;20052;-75
2021/04/21 00:22:56;;;;;;;6.90;5.38;;;;;;;22.35;46.94;94843.75;4989917;28;20495;-75
2021/04/21 00:25:22;;;;;;;7.50;5.53;;;;;;;22.31;46.79;94843.28;5008260;28;20022;-76
2021/04/21 00:27:52;;;;;;;6.47;5.22;;;;;;;22.33;46.99;94846.25;4987478;28;20037;-75
2021/04/21 00:30:20;;;;;;;7.43;5.40;;;;;;;22.30;46.95;94847.25;4967221;28;20340;-74
2021/04/21 00:32:46;;;;;;;6.03;4.78;;;;;;;22.32;46.78;94838.59;4994227;28;20148;-75
2021/04/21 00:35:13;;;;;;;6.50;5.00;;;;;;;22.30;47.02;94841.81;5008416;28;20157;-75
2021/04/21 00:37:38;;;;;;;6.95;5.43;;;;;;;21.96;47.08;94797.03;4991928;28;20041;-75
2021/04/21 00:40:05;;;;;;;6.35;5.22;;;;;;;22.28;47.31;94852.44;5008407;28;20033;-75
2021/04/21 00:42:56;;;;;;;6.85;5.10;;;;;;;22.09;46.86;94816.22;5008284;28;20032;-75
2021/04/21 00:45:22;;;;;;;6.95;5.20;;;;;;;22.27;47.02;94848.25;4991376;28;20044;-75
2021/04/21 00:47:52;;;;;;;6.68;5.13;;;;;;;22.26;46.68;94846.06;5008140;28;20114;-75
2021/04/21 00:50:30;;;;;;;6.60;5.20;;;;;;;22.24;46.63;94849.28;5007945;28;20716;-75
2021/04/21 00:53:14;;;;;;;7.63;5.20;;;;;;;22.08;46.78;94825.63;5007947;28;20033;-75
2021/04/21 00:55:49;;;;;;;7.25;5.22;;;;;;;22.26;46.96;94852.22;5008025;28;20045;-75
2021/04/21 00:58:40;;;;;;;8.00;5.35;;;;;;;22.24;46.86;94849.28;5007907;28;20517;-75
2021/04/21 01:01:08;;;;;;;6.50;5.25;;;;;;;22.20;46.97;94848.78;4991451;28;20083;-76
2021/04/21 01:03:33;;;;;;;6.75;5.05;;;;;;;21.94;46.70;94815.84;5007778;28;20522;-75
2021/04/21 01:06:05;;;;;;;6.22;4.75;;;;;;;22.25;46.89;94856.19;5006838;28;20033;-75
2021/04/21 01:08:40;;;;;;;7.18;5.20;;;;;;;22.22;46.94;94846.31;5007643;28;20801;-75
2021/04/21 01:11:24;;;;;;;5.90;5.00;;;;;;;22.23;46.66;94850.50;4990861;28;20026;-75
2021/04/21 01:13:54;;;;;;;6.00;4.90;;;;;;;22.18;46.91;94851.28;5007909;28;20030;-75
2021/04/21 01:16:31;;;;;;;7.28;5.05;;;;;;;22.01;46.85;94815.28;5007387;28;20056;-75
2021/04/21 01:18:58;;;;;;;6.10;5.07;;;;;;;22.19;47.03;94847.28;5007490;28;20030;-75
2021/04/21 01:21:36;;;;;;;5.95;4.50;;;;;;;22.01;46.76;94820.72;5005889;28;20033;-75
2021/04/21 01:24:19;;;;;;;6.43;5.20;;;;;;;22.17;46.93;94849.78;4976261;28;20029;-75
2021/04/21 01:27:05;;;;;;;7.32;5.00;;;;;;;22.15;46.87;94846.09;5008966;28;20037;-75
2021/04/21 01:29:36;;;;;;;6.68;5.22;;;;;;;22.12;46.91;94842.41;5000398;28;20040;-75
2021/04/21 01:32:09;;;;;;;6.57;5.80;;;;;;;22.16;47.07;94861.16;5027972;28;20037;-75
2021/04/21 01:34:34;;;;;;;6.00;4.68;;;;;;;22.13;46.99;94865.63;4994772;28;20033;-75
2021/04/21 01:37:01;;;;;;;8.05;4.90;;;;;;;22.06;46.79;94841.72;5010350;28;20029;-75
2021/04/21 01:39:26;;;;;;;6.60;5.32;;;;;;;22.15;46.75;94852.28;5011042;28;20108;-75
2021/04/21 01:41:52;;;;;;;6.53;5.18;;;;;;;22.14;46.76;94853.50;5010245;28;20033;-75
2021/04/21 01:44:21;;;;;;;7.90;5.10;;;;;;;22.14;46.82;94848.06;5010479;28;20033;-75
2021/04/21 01:46:49;;;;;;;5.97;4.85;;;;;;;22.11;46.88;94846.34;4994277;28;20033;-75
2021/04/21 01:49:21;;;;;;;5.90;4.75;;;;;;;22.10;46.99;94844.88;4994792;28;20029;-75
2021/04/21 01:51:47;;;;;;;5.55;4.53;;;;;;;22.07;46.89;94840.44;5018914;28;20033;-75
2021/04/21 01:54:13;;;;;;;6.50;4.90;;;;;;;22.12;46.89;94853.28;5006819;28;20557;-75
2021/04/21 01:56:45;;;;;;;6.00;4.75;;;;;;;22.08;46.71;94847.38;5006422;28;20600;-75
2021/04/21 01:59:29;;;;;;;6.30;4.45;;;;;;;22.09;46.63;94854.28;4988193;28;20135;-75
2021/04/21 02:02:24;;;;;;;6.40;5.00;;;;;;;22.09;46.87;94851.56;4992216;28;20029;-75
2021/04/21 02:04:55;;;;;;;5.88;4.38;;;;;;;21.92;47.00;94829.16;4968157;28;20051;-75
2021/04/21 02:07:55;;;;;;;7.30;5.50;;;;;;;22.09;47.09;94858.97;4967814;28;20508;-75
2021/04/21 02:10:54;;;;;;;6.50;4.90;;;;;;;22.08;46.89;94852.81;4948482;28;20039;-74
2021/04/21 02:13:32;;;;;;;6.65;4.72;;;;;;;22.07;46.81;94856.03;4950603;29;20278;-75
2021/04/21 02:16:25;;;;;;;6.28;4.72;;;;;;;22.08;46.75;94862.97;4951670;28;20493;-75
2021/04/21 02:19:00;;;;;;;6.75;4.65;;;;;;;21.84;46.95;94821.31;4954527;29;20528;-76
2021/04/21 02:21:54;;;;;;;6.93;4.93;;;;;;;22.05;46.79;94863.97;4952727;29;20038;-76
2021/04/21 02:24:34;;;;;;;6.20;4.78;;;;;;;22.04;46.63;94865.94;4953871;29;20031;-75
2021/04/21 02:27:21;;;;;;;6.38;4.93;;;;;;;21.99;47.00;94861.28;4953853;29;20041;-75
2021/04/21 02:29:55;;;;;;;7.30;4.90;;;;;;;21.86;46.88;94840.59;4953927;29;20531;-76
2021/04/21 02:32:42;;;;;;;5.82;4.60;;;;;;;22.02;46.87;94871.13;4959161;28;20490;-75
2021/04/21 02:35:20;;;;;;;6.35;4.70;;;;;;;22.00;46.85;94868.19;4962370;28;20023;-76
2021/04/21 02:38:17;;;;;;;5.65;4.60;;;;;;;22.01;46.76;94875.09;4973299;28;20035;-75
2021/04/21 02:40:55;;;;;;;6.00;4.65;;;;;;;22.00;46.73;94876.34;4956325;28;20504;-75
2021/04/21 02:43:32;;;;;;;5.85;4.68;;;;;;;22.02;46.80;94876.56;4972839;28;20093;-75
2021/04/21 02:46:21;;;;;;;5.47;4.57;;;;;;;21.82;46.83;94851.00;4972389;28;20038;-75
2021/04/21 02:49:15;;;;;;;5.18;4.45;;;;;;;21.84;46.66;94859.38;4972532;28;20023;-75
2021/04/21 02:52:06;;;;;;;5.95;4.50;;;;;;;22.01;46.82;94879.81;4973167;28;20030;-75
2021/04/21 02:54:40;;;;;;;5.45;4.38;;;;;;;21.99;46.80;94877.59;4972580;28;20496;-75
2021/04/21 02:57:10;;;;;;;5.55;4.43;;;;;;;21.98;46.86;94881.53;4974411;28;20034;-75
2021/04/21 02:59:48;;;;;;;5.57;4.72;;;;;;;21.98;46.74;94881.53;4951783;28;20038;-76
2021/04/21 03:02:34;;;;;;;6.30;4.57;;;;;;;21.92;46.72;94878.09;4972686;28;20038;-76
2021/04/21 03:05:07;;;;;;;5.65;4.28;;;;;;;21.98;46.87;94886.97;4968377;28;20043;-75
2021/04/21 03:07:58;;;;;;;6.53;4.80;;;;;;;21.97;46.91;94885.50;4970397;28;20026;-75
2021/04/21 03:10:27;;;;;;;5.70;5.10;;;;;;;21.80;46.82;94858.91;4968168;28;20030;-76
2021/04/21 03:13:24;;;;;;;7.32;4.55;;;;;;;21.99;46.82;94879.56;4937644;29;20031;-75
2021/04/21 03:15:50;;;;;;;5.65;4.53;;;;;;;21.98;46.74;94881.53;4951000;29;20032;-75
2021/04/21 03:18:20;;;;;;;5.82;4.40;;;;;;;21.86;46.52;94862.34;4935329;29;20452;-75
2021/04/21 03:20:47;;;;;;;5.30;4.40;;;;;;;21.76;46.75;94848.28;4935569;29;20499;-76
2021/04/21 03:23:13;;;;;;;6.15;4.53;;;;;;;21.95;46.71;94882.53;4936804;29;20031;-75
2021/04/21 03:25:39;;;;;;;5.90;4.20;;;;;;;21.97;46.73;94882.78;4951581;29;20046;-76
2021/04/21 03:28:10;;;;;;;5.78;4.70;;;;;;;21.97;46.67;94885.50;4974839;28;20022;-75
2021/04/21 03:30:35;;;;;;;6.30;4.80;;;;;;;21.94;46.79;94891.94;4989782;28;20057;-76
2021/04/21 03:33:10;;;;;;;4.97;4.28;;;;;;;21.95;46.80;94887.97;5006285;28;20034;-76
2021/04/21 03:35:36;;;;;;;5.28;4.32;;;;;;;21.77;46.76;94865.34;4989827;28;20415;-76
2021/04/21 03:38:09;;;;;;;5.90;4.47;;;;;;;21.93;46.67;94900.59;4990256;28;20113;-75
2021/04/21 03:40:35;;;;;;;5.80;4.40;;;;;;;21.93;46.65;94895.91;4990093;28;20085;-75
2021/04/21 03:43:01;;;;;;;6.13;5.07;;;;;;;21.87;46.62;94886.31;4976946;28;20031;-75
2021/04/21 03:45:27;;;;;;;5.70;4.57;;;;;;;21.72;46.62;94869.56;4951204;29;20117;-75
2021/04/21 03:47:54;;;;;;;4.65;4.00;;;;;;;21.96;46.58;94894.91;4951028;29;20205;-75
2021/04/21 03:50:19;;;;;;;6.20;5.20;;;;;;;21.76;46.44;94874.75;4950741;29;20031;-75
2021/04/21 03:52:46;;;;;;;5.72;4.30;;;;;;;21.74;46.80;94875.25;4950738;29;20043;-75
2021/04/21 03:55:12;;;;;;;5.30;4.45;;;;;;;21.75;46.70;94873.25;4951183;29;20089;-80
2021/04/21 03:57:40;;;;;;;5.50;4.50;;;;;;;21.84;46.27;94881.13;4958881;28;20066;-74
2021/04/21 04:00:06;;;;;;;7.05;4.70;;;;;;;21.82;46.70;94884.34;4942574;28;20552;-74
2021/04/21 04:02:32;;;;;;;6.32;4.50;;;;;;;21.99;47.14;94915.66;4963373;28;20042;-71
2021/04/21 04:04:59;;;;;;;5.70;4.43;;;;;;;21.98;47.61;94908.72;4978635;28;20530;-75
2021/04/21 04:07:26;;;;;;;5.38;4.35;;;;;;;21.97;46.78;94896.38;4963268;28;20032;-74
2021/04/21 04:09:52;;;;;;;5.97;4.22;;;;;;;22.12;46.38;94913.13;5009007;28;20030;-74
2021/04/21 04:12:17;;;;;;;5.78;4.45;;;;;;;22.31;46.27;94924.88;4995803;28;20034;-75
2021/04/21 04:14:43;;;;;;;4.72;4.00;;;;;;;22.44;45.93;94925.06;4989887;28;20033;-73
2021/04/21 04:17:08;;;;;;;5.00;4.10;;;;;;;22.52;45.28;94928.72;4994159;28;20047;-74
2021/04/21 04:19:36;;;;;;;5.30;3.65;;;;;;;22.61;45.33;94920.22;4986243;28;20030;-75
2021/04/21 04:22:16;;;;;;;5.55;3.80;;;;;;;22.75;45.06;94930.00;5006509;28;20499;-76
2021/04/21 04:24:49;;;;;;;4.68;3.30;;;;;;;22.86;44.87;94930.69;5007724;28;20026;-76
2021/04/21 04:27:22;;;;;;;5.25;3.78;;;;;;;23.00;44.92;94924.13;4998586;28;20078;-76
2021/04/21 04:29:49;;;;;;;4.68;3.58;;;;;;;23.10;44.67;94934.19;5000813;28;20068;-76
2021/04/21 04:32:24;;;;;;;4.90;3.70;;;;;;;23.05;44.46;94921.38;4988558;28;20034;-75
2021/04/21 04:34:51;;;;;;;5.38;3.55;;;;;;;23.32;44.08;94934.00;4985388;28;20038;-76
2021/04/21 04:37:18;;;;;;;5.82;3.65;;;;;;;23.42;43.71;94938.59;4997418;28;20041;-76
2021/04/21 04:39:43;;;;;;;4.40;3.50;;;;;;;23.53;43.48;94943.22;5013130;28;20561;-77
2021/04/21 04:42:09;;;;;;;5.20;3.80;;;;;;;23.69;43.04;94942.28;4985466;28;20086;-74
2021/04/21 04:44:42;;;;;;;5.05;3.65;;;;;;;23.74;43.13;94936.06;5005118;28;20040;-78
2021/04/21 04:47:11;;;;;;;4.18;3.40;;;;;;;23.87;42.98;94951.25;5007537;23;20058;-75
2021/04/21 04:50:00;;;;;;;6.20;3.60;;;;;;;23.83;42.72;94938.44;4970229;23;20089;-77
2021/04/21 04:52:26;;;;;;;5.45;3.50;;;;;;;23.88;42.23;94930.94;4989693;23;20133;-75
2021/04/21 04:54:52;;;;;;;5.32;3.47;;;;;;;24.16;42.15;94950.41;4987827;28;20522;-79
2021/04/21 04:57:18;;;;;;;4.68;3.35;;;;;;;24.31;42.01;94950.69;4984528;28;20026;-81
2021/04/21 04:59:46;;;;;;;4.35;3.45;;;;;;;24.40;41.90;94958.56;4981258;28;20592;-75
2021/04/21 05:02:11;;;;;;;4.38;3.53;;;;;;;24.56;41.42;94960.31;5000366;28;20028;-79
2021/04/21 05:04:39;;;;;;;4.88;3.47;;;;;;;24.26;41.39;94916.03;4984860;28;20506;-77
2021/04/21 05:07:05;;;;;;;4.72;3.53;;;;;;;24.71;40.88;94966.03;4997570;23;20046;-68
2021/04/21 05:09:34;;;;;;;4.57;3.42;;;;;;;24.80;40.96;94965.66;5020071;28;20144;-68
2021/04/21 05:11:59;;;;;;;4.35;3.50;;;;;;;24.88;40.61;94965.25;5016404;28;20032;-77
2021/04/21 05:14:25;;;;;;;5.10;3.47;;;;;;;24.85;40.66;94966.31;5013478;28;20033;-74
2021/04/21 05:16:53;;;;;;;6.85;3.72;;;;;;;24.90;40.98;94973.69;5022620;23;20046;-79
2021/04/21 05:19:43;;;;;;;3.97;3.38;;;;;;;24.95;40.65;94970.13;4988393;28;20732;-79
2021/04/21 05:22:33;;;;;;;3.95;3.10;;;;;;;25.05;40.31;94974.00;4988871;28;20559;-78
2021/04/21 05:25:08;;;;;;;4.55;3.30;;;;;;;25.13;40.47;94974.84;4986613;28;20125;-80
2021/04/21 05:28:34;;;;;;;4.13;2.97;;;;;;;25.13;40.85;94974.13;4988373;28;20465;-79
2021/04/21 05:31:21;;;;;;;5.25;3.22;;;;;;;25.39;42.65;94980.38;4907132;29;20095;-72
2021/04/21 05:34:32;;;;;;;4.20;2.95;;;;;;;25.32;42.77;94981.00;4906787;29;20506;-73
2021/04/21 05:37:06;;;;;;;3.38;2.83;;;;;;;25.38;41.57;94984.34;4956791;28;20034;-73
2021/04/21 05:39:58;;;;;;;4.18;3.33;;;;;;;25.48;40.74;94988.91;4987693;28;20030;-80
2021/04/21 05:43:01;;;;;;;3.42;2.70;;;;;;;25.53;44.50;94984.59;4968893;28;20022;-76
2021/04/21 05:46:08;;;;;;;4.57;3.20;;;;;;;25.46;44.14;94985.22;4984254;28;20118;-77
2021/04/21 05:48:51;;;;;;;4.05;3.20;;;;;;;25.47;42.01;94986.69;4956338;28;20030;-82
2021/04/21 05:51:20;;;;;;;4.72;3.40;;;;;;;25.50;40.79;94993.84;4959570;28;20120;-83
2021/04/21 05:54:16;;;;;;;3.83;3.00;;;;;;;25.46;40.53;94990.69;4988692;28;20437;-86
2021/04/21 05:57:00;;;;;;;3.80;3.30;;;;;;;25.50;40.17;94985.63;4959720;28;20050;-80
2021/04/21 05:59:38;;;;;;;4.20;3.17;;;;;;;25.53;40.51;94990.06;4984927;28;20483;-80
2021/04/21 06:02:04;;;;;;;4.05;3.15;;;;;;;25.58;40.26;94997.44;4986952;28;20033;-78
2021/04/21 06:04:29;;;;;;;4.75;3.47;;;;;;;25.62;39.37;95003.31;4985743;28;20077;-74
2021/04/21 06:07:05;;;;;;;3.50;2.92;;;;;;;25.70;39.62;95006.97;4968645;28;20097;-75
2021/04/21 06:09:30;;;;;;;4.28;3.20;;;;;;;25.76;39.40;95007.59;4985550;28;20030;-74
2021/04/21 06:12:09;;;;;;;3.33;2.85;;;;;;;25.73;39.68;95008.66;4987762;28;20037;-73
2021/04/21 06:14:35;;;;;;;3.33;2.67;;;;;;;25.72;39.15;95001.69;4962350;28;20026;-74
2021/04/21 06:17:00;;;;;;;3.85;2.78;;;;;;;25.75;39.27;95017.06;4975161;28;20043;-74
2021/04/21 06:19:26;;;;;;;4.10;2.90;;;;;;;25.75;39.46;95015.06;4987702;28;20048;-75
2021/04/21 06:21:51;;;;;;;4.13;3.30;;;;;;;25.79;39.10;94990.13;4987121;28;20030;-76
2021/04/21 06:24:18;;;;;;;5.35;3.70;;;;;;;25.95;38.69;95008.97;4953679;28;20390;-76
2021/04/21 06:26:44;;;;;;;4.68;2.70;;;;;;;26.03;38.93;95016.00;4987067;28;20624;-76
2021/04/21 06:29:09;;;;;;;4.70;2.90;;;;;;;25.95;38.75;94987.81;4987112;28;20026;-78
2021/04/21 06:31:40;;;;;;;3.05;2.60;;;;;;;26.24;38.58;95014.13;4944154;28;20042;-74
2021/04/21 06:34:06;;;;;;;5.10;2.72;;;;;;;26.35;38.23;95011.16;4952102;28;20034;-69
2021/04/21 06:36:40;;;;;;;3.72;2.92;;;;;;;26.26;38.27;95010.84;4987103;28;20068;-69
2021/04/21 06:39:06;;;;;;;5.85;2.95;;;;;;;26.18;38.18;95008.00;4986546;28;20089;-68
2021/04/21 06:41:31;;;;;;;3.70;2.65;;;;;;;26.21;38.32;95015.16;4971935;28;20026;-68
2021/04/21 06:43:57;;;;;;;4.00;2.92;;;;;;;26.17;38.13;95006.53;4969847;28;20026;-70
2021/04/21 06:46:23;;;;;;;4.13;2.70;;;;;;;26.26;38.04;95011.56;4969964;28;20022;-70
2021/04/21 06:48:56;;;;;;;4.18;3.10;;;;;;;26.23;38.06;95007.16;4987429;28;20050;-69
2021/04/21 06:51:23;;;;;;;4.03;2.92;;;;;;;26.24;37.88;95019.59;4987245;28;20027;-68
2021/04/21 06:53:48;;;;;;;3.58;2.75;;;;;;;26.07;38.06;94994.56;4970223;28;20030;-71
2021/04/21 06:56:14;;;;;;;4.63;2.75;;;;;;;26.27;37.37;95009.59;4953669;28;20022;-69
2021/04/21 06:58:40;;;;;;;3.47;2.50;;;;;;;26.32;37.38;95014.97;4971875;28;20081;-68
2021/04/21 07:01:12;;;;;;;3.67;2.63;;;;;;;26.09;37.35;94992.00;4969763;28;20061;-70
2021/04/21 07:03:38;;;;;;;4.20;3.08;;;;;;;26.21;37.87;95015.16;4972565;28;20041;-68
2021/04/21 07:06:04;;;;;;;3.95;2.78;;;;;;;26.12;37.57;95012.13;4990950;28;20034;-68
2021/04/21 07:08:32;;;;;;;3.38;2.58;;;;;;;25.79;37.79;94979.19;4992685;28;20053;-69
2021/04/21 07:10:58;;;;;;;4.13;2.78;;;;;;;26.06;38.00;95025.91;4973961;28;20030;-69
2021/04/21 07:13:34;;;;;;;3.38;2.60;;;;;;;26.00;37.90;95017.06;4992827;28;20034;-69
2021/04/21 07:16:00;;;;;;;3.72;2.65;;;;;;;25.92;37.99;95027.19;4971926;28;20505;-69
2021/04/21 07:18:30;;;;;;;3.90;2.60;;;;;;;25.85;37.78;95022.31;4990949;28;20050;-69
2021/04/21 07:20:56;;;;;;;3.15;2.47;;;;;;;25.82;38.18;95023.38;4974605;28;20022;-69
2021/04/21 07:23:23;;;;;;;3.13;2.50;;;;;;;25.75;38.25;95020.53;4990694;28;20037;-69
2021/04/21 07:25:49;;;;;;;3.30;2.75;;;;;;;25.56;38.17;95005.41;4989969;28;20576;-69
2021/04/21 07:28:15;;;;;;;4.50;2.72;;;;;;;25.68;38.22;95028.63;4969032;28;20058;-69
2021/04/21 07:30:40;;;;;;;3.83;2.80;;;;;;;25.58;38.31;95019.31;4973251;28;20049;-71
2021/04/21 07:33:06;;;;;;;4.22;2.80;;;;;;;25.53;38.46;95026.38;4988692;28;20030;-70
2021/04/21 07:35:33;;;;;;;4.32;2.67;;;;;;;25.44;38.77;95020.53;4969166;28;20055;-69
2021/04/21 07:37:59;;;;;;;3.88;2.72;;;;;;;25.31;38.57;95017.78;4982342;28;20510;-69
2021/04/21 07:40:35;;;;;;;4.35;3.22;;;;;;;25.38;38.77;95022.63;4983693;28;20085;-69
2021/04/21 07:43:09;;;;;;;3.75;2.75;;;;;;;25.29;39.05;95036.72;4955269;28;20078;-69
2021/04/21 07:45:54;;;;;;;3.30;2.67;;;;;;;25.27;39.01;95028.28;4984314;28;20034;-69
2021/04/21 07:48:38;;;;;;;3.17;2.50;;;;;;;25.06;39.36;95013.69;4985750;28;20431;-69
2021/04/21 07:51:16;;;;;;;3.25;2.42;;;;;;;25.19;39.26;95026.69;4970397;28;20050;-69
2021/04/21 07:53:51;;;;;;;3.55;2.50;;;;;;;25.15;39.46;95032.44;4971571;28;20165;-69
2021/04/21 07:56:18;;;;;;;3.28;2.28;;;;;;;24.98;39.24;95012.81;4971360;28;20019;-69
2021/04/21 07:58:43;;;;;;;3.13;2.60;;;;;;;25.08;39.07;95033.06;4970502;28;20449;-69
2021/04/21 08:01:09;;;;;;;3.50;2.40;;;;;;;25.03;39.21;95033.88;4970610;28;20085;-69
2021/04/21 08:03:35;;;;;;;3.63;2.55;;;;;;;24.99;39.61;95036.19;4979267;28;20544;-70
2021/04/21 08:06:01;;;;;;;3.95;2.42;;;;;;;24.95;39.49;95032.97;4973800;28;20116;-69
2021/04/21 08:08:30;;;;;;;3.65;2.55;;;;;;;24.91;39.36;95029.78;4990211;28;20494;-69
2021/04/21 08:10:55;;;;;;;4.53;2.90;;;;;;;24.90;39.22;95033.81;4988462;28;20415;-69
2021/04/21 08:13:46;;;;;;;3.33;2.42;;;;;;;24.90;39.85;95038.50;4990230;28;20030;-69
2021/04/21 08:16:25;;;;;;;4.28;2.63;;;;;;;24.86;39.64;95038.09;4990806;28;20084;-69
2021/04/21 08:18:50;;;;;;;3.40;2.38;;;;;;;24.84;39.48;95035.88;4989139;28;20531;-69
2021/04/21 08:21:37;;;;;;;4.18;2.80;;;;;;;24.83;39.33;95028.94;4989574;28;20022;-69
2021/04/21 08:24:09;;;;;;;4.82;2.80;;;;;;;24.79;39.44;95032.47;4990395;28;20579;-69
2021/04/21 08:26:35;;;;;;;3.55;2.63;;;;;;;24.76;39.94;95045.16;4974241;28;20045;-69
2021/04/21 08:29:01;;;;;;;3.38;2.60;;;;;;;24.74;39.86;95036.00;4989130;28;20026;-69
2021/04/21 08:31:27;;;;;;;3.40;2.65;;;;;;;24.72;40.06;95044.00;4989760;28;20022;-69
2021/04/21 08:33:52;;;;;;;4.38;2.65;;;;;;;24.71;40.23;95045.22;4990345;28;20557;-69
2021/04/21 08:36:19;;;;;;;3.20;2.38;;;;;;;24.71;39.94;95045.22;4990286;28;20033;-69
2021/04/21 08:38:45;;;;;;;4.00;2.80;;;;;;;24.68;40.04;95043.53;4972783;28;20034;-69
2021/04/21 08:41:11;;;;;;;3.08;2.38;;;;;;;24.65;40.14;95048.06;4972998;28;20030;-69
2021/04/21 08:43:36;;;;;;;3.15;2.50;;;;;;;24.60;39.67;95048.13;4972341;28;20434;-69
2021/04/21 08:46:03;;;;;;;4.25;2.53;;;;;;;24.49;39.90;95023.69;4972875;28;20537;-69
2021/04/21 08:48:28;;;;;;;3.72;2.70;;;;;;;24.40;40.19;95013.13;4989893;28;20022;-69
2021/04/21 08:50:54;;;;;;;3.15;2.42;;;;;;;24.38;40.33;95004.75;4956613;28;20121;-69
2021/04/21 08:53:19;;;;;;;3.35;2.30;;;;;;;24.57;39.98;95038.22;4956632;28;20077;-69
2021/04/21 08:55:45;;;;;;;3.72;2.58;;;;;;;24.51;39.87;95023.91;4989924;28;20074;-69
2021/04/21 08:58:11;;;;;;;3.55;2.50;;;;;;;24.56;40.30;95021.13;4968926;28;20030;-69
2021/04/21 09:00:39;;;;;;;4.35;2.80;;;;;;;24.35;40.05;94978.47;4985977;28;20121;-69
2021/04/21 09:03:05;;;;;;;3.35;2.35;;;;;;;24.49;40.18;95007.31;4969650;28;20473;-69
2021/04/21 09:05:30;;;;;;;3.88;2.80;;;;;;;24.41;40.38;94998.25;4953357;28;20033;-70
2021/04/21 09:07:56;;;;;;;3.47;2.45;;;;;;;24.52;40.05;95022.66;4988103;28;20034;-70
2021/04/21 09:10:21;;;;;;;3.63;2.70;;;;;;;24.50;40.23;95000.63;4987331;28;20026;-71
2021/04/21 09:12:47;;;;;;;3.58;2.25;;;;;;;24.51;40.18;95002.06;4988548;28;20034;-71
2021/04/21 09:15:13;;;;;;;3.67;2.70;;;;;;;24.51;40.13;95007.53;4988163;28;20117;-67
2021/04/21 09:17:47;;;;;;;3.03;2.25;;;;;;;24.48;40.85;94997.63;4961307;28;20475;-69
2021/04/21 09:20:14;;;;;;;4.53;2.78;;;;;;;24.53;40.42;94999.59;4966523;28;20034;-70
2021/04/21 09:23:02;;;;;;;4.13;2.60;;;;;;;24.58;40.52;95002.22;4968970;28;20027;-75
2021/04/21 09:25:33;;;;;;;3.65;2.65;;;;;;;24.64;40.09;94999.41;4954278;28;20435;-73
2021/04/21 09:27:59;;;;;;;2.80;2.33;;;;;;;24.69;40.75;95001.31;4962084;28;20105;-73
2021/04/21 09:30:26;;;;;;;3.80;2.22;;;;;;;24.77;40.72;94994.75;4967321;28;20481;-74
2021/04/21 09:32:53;;;;;;;3.00;2.63;;;;;;;24.85;40.21;94999.09;4967216;28;20521;-75
2021/04/21 09:35:39;;;;;;;3.85;2.25;;;;;;;24.98;40.66;94996.41;4966182;28;20023;-75
2021/04/21 09:38:16;;;;;;;4.18;2.25;;;;;;;25.10;40.32;95008.69;4968393;28;20038;-74
2021/04/21 09:40:54;;;;;;;3.08;2.17;;;;;;;25.19;40.29;95011.03;4967578;28;20537;-75
2021/04/21 09:43:22;;;;;;;4.32;2.38;;;;;;;25.28;40.19;95018.09;4969499;28;20511;-75
2021/04/21 09:45:54;;;;;;;4.15;2.30;;;;;;;25.30;39.85;95021.78;4968316;28;20513;-74
2021/04/21 09:48:24;;;;;;;3.50;2.38;;;;;;;25.40;39.82;95042.00;4962999;28;20019;-74
2021/04/21 09:51:06;;;;;;;3.78;2.60;;;;;;;25.52;39.44;95032.34;4960389;28;20058;-75
2021/04/21 09:53:45;;;;;;;3.28;2.15;;;;;;;25.63;39.73;95049.31;4962678;28;20065;-74
2021/04/21 09:56:16;;;;;;;4.07;2.70;;;;;;;25.77;39.14;95050.09;4968626;28;20127;-74
2021/04/21 09:58:44;;;;;;;3.33;2.00;;;;;;;25.80;39.00;95047.06;4960863;28;20049;-76
2021/04/21 10:01:19;;;;;;;3.13;2.08;;;;;;;25.92;39.09;95049.06;4965137;28;20042;-74
2021/04/21 10:03:45;;;;;;;4.13;2.17;;;;;;;26.01;38.72;95065.06;4962613;28;20441;-75
2021/04/21 10:06:20;;;;;;;4.13;2.50;;;;;;;26.07;38.36;95073.94;4963758;28;20090;-75
2021/04/21 10:08:46;;;;;;;3.88;2.47;;;;;;;26.02;38.49;95052.88;4941607;28;20042;-73
2021/04/21 10:11:11;;;;;;;4.07;2.88;;;;;;;26.18;38.28;95070.25;4948761;28;20030;-75
2021/04/21 10:13:45;;;;;;;4.03;2.42;;;;;;;26.20;38.20;95041.06;4966987;28;20050;-75
2021/04/21 10:16:11;;;;;;;4.20;2.30;;;;;;;26.15;38.00;95038.44;4966869;28;21081;-74
2021/04/21 10:18:36;;;;;;;4.13;2.50;;;;;;;26.39;38.00;95058.16;4953017;28;20026;-76
2021/04/21 10:21:03;;;;;;;3.35;2.20;;;;;;;26.36;38.27;95053.72;4970187;28;20117;-75
2021/04/21 10:23:29;;;;;;;3.22;2.40;;;;;;;26.32;38.34;95036.88;4988969;28;20568;-78
2021/04/21 10:25:54;;;;;;;4.35;2.40;;;;;;;26.40;38.50;95043.94;4972057;28;20032;-77
2021/04/21 10:28:21;;;;;;;2.85;2.00;;;;;;;26.51;38.69;95040.22;4970885;28;20023;-76
2021/04/21 10:30:46;;;;;;;4.32;2.20;;;;;;;26.62;38.72;95053.69;4954751;28;20026;-76
2021/04/21 10:33:13;;;;;;;3.70;2.30;;;;;;;26.73;38.25;95042.53;4987036;28;20033;-77
2021/04/21 10:35:39;;;;;;;3.58;2.20;;;;;;;26.79;38.37;95039.13;4970990;28;20022;-75
2021/04/21 10:38:05;;;;;;;3.70;2.50;;;;;;;26.88;37.76;95033.19;4990729;28;20060;-77
2021/04/21 10:40:31;;;;;;;3.95;2.30;;;;;;;26.94;38.12;95039.31;4974785;28;20034;-74
2021/04/21 10:43:07;;;;;;;3.72;2.25;;;;;;;26.98;37.68;95030.75;4991686;28;20022;-75
2021/04/21 10:45:54;;;;;;;3.50;1.92;;;;;;;27.01;37.89;95035.91;4991956;28;20026;-75
2021/04/21 10:48:39;;;;;;;3.63;2.22;;;;;;;27.04;37.83;95040.34;4976822;28;20046;-74
2021/04/21 10:51:34;;;;;;;3.58;1.98;;;;;;;26.98;38.02;95037.00;4974203;28;20030;-72
2021/04/21 10:54:08;;;;;;;2.70;1.80;;;;;;;26.86;38.02;95029.50;4992167;28;20065;-75
2021/04/21 10:56:34;;;;;;;3.45;2.38;;;;;;;26.86;38.04;95035.72;4989939;28;20026;-77
2021/04/21 10:59:01;;;;;;;3.85;2.33;;;;;;;26.83;38.18;95042.28;4990806;28;20033;-75
2021/04/21 11:01:27;;;;;;;3.78;2.50;;;;;;;26.65;38.34;95022.50;4991088;28;20088;-75
2021/04/21 11:03:52;;;;;;;9.52;2.75;;;;;;;26.77;38.46;95038.91;4990200;28;20030;-69
2021/04/21 11:06:40;;;;;;;6.75;2.50;;;;;;;26.64;38.43;95040.22;4990583;28;20027;-69
2021/04/21 11:09:09;;;;;;;10.88;2.40;;;;;;;26.50;38.28;95027.78;4990899;28;20022;-69
2021/04/21 11:11:47;;;;;;;11.53;3.03;;;;;;;26.43;38.35;95031.91;4989604;28;20193;-68
2021/04/21 11:14:48;;;;;;;10.75;2.50;;;;;;;26.47;38.29;95031.59;4986862;28;20804;-69
2021/04/21 11:17:13;;;;;;;8.32;3.05;;;;;;;26.29;38.52;95026.97;4957827;28;20053;-69
2021/04/21 11:19:42;;;;;;;16.50;3.17;;;;;;;26.17;38.63;95028.44;4970857;28;20030;-70
2021/04/21 11:22:13;;;;;;;13.63;3.40;;;;;;;26.22;38.33;95029.59;4968391;28;20046;-71
2021/04/21 11:24:39;;;;;;;11.82;3.20;;;;;;;26.09;38.67;95019.38;4984897;28;20417;-69
2021/04/21 11:27:04;;;;;;;12.98;3.15;;;;;;;25.85;38.63;94978.53;4990210;28;20018;-69
2021/04/21 11:29:30;;;;;;;10.30;3.22;;;;;;;26.05;38.56;95018.97;4973769;28;20035;-69
2021/04/21 11:31:55;;;;;;;10.15;3.42;;;;;;;25.92;38.82;95015.50;4990718;28;20030;-69
2021/04/21 11:34:32;;;;;;;13.73;3.20;;;;;;;25.60;38.86;94983.97;4989981;28;20043;-69
2021/04/21 11:37:01;;;;;;;17.38;3.95;;;;;;;25.79;38.98;95012.03;4990713;28;20022;-69
2021/04/21 11:39:45;;;;;;;12.43;3.00;;;;;;;25.79;39.08;95010.00;4973575;28;20022;-68
2021/04/21 11:42:35;;;;;;;15.30;3.47;;;;;;;25.76;39.05;95007.59;4990157;28;20117;-69
2021/04/21 11:45:10;;;;;;;11.30;3.05;;;;;;;25.57;39.19;94985.03;4990842;28;20042;-69
2021/04/21 11:47:49;;;;;;;11.80;3.45;;;;;;;25.61;39.16;94996.41;4973741;28;20050;-69
2021/04/21 11:50:18;;;;;;;12.27;3.30;;;;;;;25.60;39.66;95006.59;4956507;28;20057;-69
2021/04/21 11:52:57;;;;;;;12.43;3.63;;;;;;;25.56;39.73;94999.94;4990408;28;20038;-69
2021/04/21 11:55:24;;;;;;;10.75;3.15;;;;;;;25.55;39.34;94993.03;4947301;28;20022;-69